Pirtle, Texas
Current Conditions -  °F | °C
As of 7:55 AM on Sunday 25 Jan 2015 (Local Time) from KRFI Reporting Station
Clear Clear  
Wind Chill:   Ceiling: Unl
Heat Index:   Visibility: 10mi
Dew Point:   Wind: 0mph
Humidity: 97%   Direction: NA
Pressure: 29.94"   Gusts: NA
Location:  32.2818°N, 94.951°W
Report Text: KRFI 251355Z AUTO 00000KT 10SM CLR 01/01 A2994 RMK AO2 T00140010
Loading
Personal Weather Stations






























Interactive Weather Map New forecast layout! Learn more

10-Day Weather Forecast

Advertisements
Track Severe Weather on mobile